createdAt,value
2019-03-18T00:00:33.599Z,10.83
2019-03-18T00:03:01.852Z,5.57
2019-03-18T00:05:30.147Z,9.50
2019-03-18T00:07:58.439Z,9.40
2019-03-18T00:10:26.735Z,9.63
2019-03-18T00:12:55.017Z,8.73
2019-03-18T00:15:23.435Z,4.53
2019-03-18T00:17:51.781Z,5.53
2019-03-18T00:20:20.061Z,9.47
2019-03-18T00:22:48.318Z,6.03
2019-03-18T00:25:16.638Z,9.23
2019-03-18T00:27:44.902Z,5.47
2019-03-18T00:30:15.373Z,9.67
2019-03-18T00:32:43.842Z,8.47
2019-03-18T00:35:12.134Z,13.00
2019-03-18T00:37:40.399Z,7.60
2019-03-18T00:40:17.630Z,6.47
2019-03-18T00:42:46.058Z,8.20
2019-03-18T00:45:15.585Z,7.93
2019-03-18T00:47:44.183Z,7.07
2019-03-18T00:50:14.615Z,7.13
2019-03-18T00:52:43.050Z,9.67
2019-03-18T00:55:11.374Z,14.07
2019-03-18T00:57:39.660Z,9.70
2019-03-18T01:00:17.668Z,5.50
2019-03-18T01:02:48.100Z,8.77
2019-03-18T01:05:15.902Z,7.50
2019-03-18T01:07:44.164Z,7.13
2019-03-18T01:10:14.415Z,8.10
2019-03-18T01:12:42.663Z,8.43
2019-03-18T01:15:11.428Z,8.97
2019-03-18T01:17:39.734Z,6.87
2019-03-18T01:20:09.735Z,8.23
2019-03-18T01:22:37.999Z,6.23
2019-03-18T01:25:07.318Z,6.33
2019-03-18T01:27:35.591Z,7.90
2019-03-18T01:30:04.696Z,8.80
2019-03-18T01:32:32.982Z,8.20
2019-03-18T01:35:01.230Z,6.97
2019-03-18T01:37:29.518Z,6.70
2019-03-18T01:39:57.827Z,6.70
2019-03-18T01:42:26.114Z,8.07
2019-03-18T01:44:54.392Z,5.97
2019-03-18T01:47:22.752Z,9.40
2019-03-18T01:49:51.016Z,5.57
2019-03-18T01:52:19.379Z,6.73
2019-03-18T01:54:47.688Z,7.87
2019-03-18T01:57:15.944Z,7.30
2019-03-18T01:59:44.204Z,9.97
2019-03-18T02:02:12.478Z,7.67
2019-03-18T02:04:40.813Z,6.17
2019-03-18T02:07:09.059Z,13.60
2019-03-18T02:09:37.324Z,7.30
2019-03-18T02:12:05.600Z,7.53
2019-03-18T02:14:33.854Z,6.20
2019-03-18T02:17:02.102Z,6.93
2019-03-18T02:19:30.415Z,4.73
2019-03-18T02:21:58.684Z,5.67
2019-03-18T02:24:26.966Z,9.33
2019-03-18T02:26:55.353Z,5.90
2019-03-18T02:29:23.706Z,10.27
2019-03-18T02:31:51.998Z,7.50
2019-03-18T02:34:20.339Z,7.27
2019-03-18T02:36:48.600Z,6.73
2019-03-18T02:39:16.888Z,5.50
2019-03-18T02:41:45.250Z,5.07
2019-03-18T02:44:13.628Z,6.50
2019-03-18T02:46:41.891Z,6.10
2019-03-18T02:49:10.181Z,6.03
2019-03-18T02:51:38.456Z,8.63
2019-03-18T02:54:06.724Z,10.80
2019-03-18T02:56:35.022Z,5.17
2019-03-18T02:59:03.336Z,4.53
2019-03-18T03:01:31.677Z,6.63
2019-03-18T03:03:59.980Z,2.60
2019-03-18T03:06:28.254Z,5.13
2019-03-18T03:08:56.527Z,4.93
2019-03-18T03:11:24.866Z,3.73
2019-03-18T03:13:53.195Z,4.17
2019-03-18T03:16:27.270Z,4.13
2019-03-18T03:18:51.507Z,8.10
2019-03-18T03:21:19.894Z,4.63
2019-03-18T03:23:48.159Z,5.30
2019-03-18T03:26:16.420Z,5.30
2019-03-18T03:28:44.667Z,5.67
2019-03-18T03:31:12.954Z,7.73
2019-03-18T03:33:41.268Z,3.87
2019-03-18T03:36:09.643Z,4.63
2019-03-18T03:38:37.905Z,8.43
2019-03-18T03:41:06.270Z,8.90
2019-03-18T03:43:34.500Z,7.97
2019-03-18T03:46:02.819Z,8.40
2019-03-18T03:48:31.138Z,7.00
2019-03-18T03:50:59.411Z,7.57
2019-03-18T03:53:30.869Z,9.07
2019-03-18T03:55:57.680Z,7.50
2019-03-18T03:58:26.121Z,13.90
2019-03-18T04:00:54.518Z,11.70
2019-03-18T04:03:37.732Z,9.00
2019-03-18T04:05:52.880Z,8.87
2019-03-18T04:08:21.153Z,7.60
2019-03-18T04:10:49.531Z,11.77
2019-03-18T04:13:17.899Z,9.60
2019-03-18T04:15:46.244Z,8.77
2019-03-18T04:18:14.580Z,6.90
2019-03-18T04:20:42.895Z,9.17
2019-03-18T04:23:11.173Z,8.97
2019-03-18T04:25:39.509Z,7.27
2019-03-18T04:28:07.866Z,11.27
2019-03-18T04:30:36.193Z,4.83
2019-03-18T04:33:04.639Z,6.50
2019-03-18T04:35:32.992Z,8.47
2019-03-18T04:38:01.266Z,13.00
2019-03-18T04:40:29.555Z,8.50
2019-03-18T04:42:57.824Z,13.73
2019-03-18T04:45:26.094Z,10.07
2019-03-18T04:47:54.385Z,10.27
2019-03-18T04:50:22.631Z,14.87
2019-03-18T04:52:50.937Z,10.43
2019-03-18T04:55:19.238Z,11.20
2019-03-18T04:57:47.622Z,7.37
2019-03-18T05:00:15.968Z,11.17
2019-03-18T05:02:44.276Z,12.23
2019-03-18T05:05:12.622Z,13.33
2019-03-18T05:07:40.893Z,11.27
2019-03-18T05:10:11.931Z,11.03
2019-03-18T05:12:40.358Z,19.80
2019-03-18T05:15:09.788Z,7.40
2019-03-18T05:17:38.096Z,12.43
2019-03-18T05:20:08.314Z,10.27
2019-03-18T05:22:36.707Z,16.20
2019-03-18T05:25:06.711Z,15.37
2019-03-18T05:27:35.095Z,21.07
2019-03-18T05:30:11.137Z,18.03
2019-03-18T05:32:39.442Z,23.27
2019-03-18T05:35:07.742Z,16.37
2019-03-18T05:37:36.156Z,19.30
2019-03-18T05:40:06.031Z,24.10
2019-03-18T05:42:34.306Z,15.90
2019-03-18T05:45:02.777Z,23.33
2019-03-18T05:47:39.339Z,21.40
2019-03-18T05:50:01.064Z,24.10
2019-03-18T05:52:29.330Z,23.37
2019-03-18T05:54:57.586Z,17.03
2019-03-18T05:57:26.226Z,21.23
2019-03-18T05:59:54.588Z,9.70
2019-03-18T06:02:23.062Z,16.97
2019-03-18T06:04:51.329Z,16.20
2019-03-18T06:07:19.713Z,24.07
2019-03-18T06:09:48.261Z,21.27
2019-03-18T06:12:16.612Z,26.03
2019-03-18T06:14:44.902Z,25.33
2019-03-18T06:17:13.332Z,17.80
2019-03-18T06:19:41.677Z,20.57
2019-03-18T06:22:10.067Z,24.80
2019-03-18T06:24:38.651Z,21.17
2019-03-18T06:27:06.954Z,20.67
2019-03-18T06:29:35.302Z,23.00
2019-03-18T06:32:03.766Z,20.30
2019-03-18T06:34:32.131Z,22.07
2019-03-18T06:37:00.475Z,13.23
2019-03-18T06:39:28.746Z,12.13
2019-03-18T06:41:57.039Z,15.87
2019-03-18T06:44:25.401Z,21.70
2019-03-18T06:46:53.758Z,14.37
2019-03-18T06:49:22.057Z,13.70
2019-03-18T06:51:50.470Z,17.50
2019-03-18T06:54:18.725Z,13.57
2019-03-18T06:56:47.032Z,19.90
2019-03-18T06:59:15.812Z,13.50
2019-03-18T07:01:44.295Z,15.43
2019-03-18T07:04:12.578Z,11.50
2019-03-18T07:06:40.862Z,10.77
2019-03-18T07:09:09.194Z,12.00
2019-03-18T07:11:37.555Z,11.83
2019-03-18T07:14:05.843Z,12.90
2019-03-18T07:16:34.119Z,13.57
2019-03-18T07:19:02.371Z,18.17
2019-03-18T07:21:30.716Z,12.30
2019-03-18T07:23:59.011Z,16.63
2019-03-18T07:26:27.329Z,13.33
2019-03-18T07:28:55.586Z,13.60
2019-03-18T07:31:23.883Z,12.97
2019-03-18T07:33:52.123Z,16.67
2019-03-18T07:36:20.398Z,13.53
2019-03-18T07:38:48.676Z,18.10
2019-03-18T07:41:17.355Z,16.90
2019-03-18T07:43:45.679Z,28.97
2019-03-18T07:46:13.949Z,25.90
2019-03-18T07:48:42.216Z,26.70
2019-03-18T07:51:10.469Z,23.47
2019-03-18T07:53:38.752Z,25.97
2019-03-18T07:56:06.998Z,30.30
2019-03-18T07:58:35.268Z,28.13
2019-03-18T08:01:03.615Z,31.63
2019-03-18T08:03:32.241Z,30.50
2019-03-18T08:06:00.567Z,21.40
2019-03-18T08:08:29.035Z,28.40
2019-03-18T08:10:57.344Z,28.13
2019-03-18T08:13:25.653Z,22.03
2019-03-18T08:15:53.896Z,23.73
2019-03-18T08:18:22.179Z,29.87
2019-03-18T08:20:50.471Z,31.73
2019-03-18T08:23:18.746Z,34.20
2019-03-18T08:25:47.034Z,32.37
2019-03-18T08:28:15.384Z,26.33
2019-03-18T08:30:43.649Z,22.97
2019-03-18T08:33:11.905Z,24.13
2019-03-18T08:35:40.267Z,21.13
2019-03-18T08:38:11.821Z,19.87
2019-03-18T08:40:40.068Z,28.80
2019-03-18T08:43:08.334Z,22.47
2019-03-18T08:45:36.604Z,20.00
2019-03-18T08:48:04.897Z,11.03
2019-03-18T08:50:33.155Z,15.87
2019-03-18T08:53:01.429Z,12.60
2019-03-18T08:55:29.708Z,10.43
2019-03-18T08:57:57.981Z,13.07
2019-03-18T09:00:26.259Z,12.00
2019-03-18T09:02:56.360Z,16.23
2019-03-18T09:05:24.619Z,16.53
2019-03-18T09:07:52.882Z,18.00
2019-03-18T09:10:21.239Z,19.93
2019-03-18T09:12:49.534Z,26.10
2019-03-18T09:15:17.814Z,17.80
2019-03-18T09:17:46.142Z,23.27
2019-03-18T09:20:16.764Z,24.57
2019-03-18T09:22:45.102Z,34.67
2019-03-18T09:25:13.450Z,23.67
2019-03-18T09:27:41.706Z,19.77
2019-03-18T09:30:18.145Z,25.23
2019-03-18T09:32:46.491Z,28.60
2019-03-18T09:35:14.778Z,26.90
2019-03-18T09:37:43.021Z,22.87
2019-03-18T09:40:13.701Z,14.10
2019-03-18T09:42:41.989Z,4.40
2019-03-18T09:45:12.434Z,4.73
2019-03-18T09:47:40.682Z,6.17
2019-03-18T09:50:10.075Z,2.50
2019-03-18T09:52:38.414Z,4.43
2019-03-18T09:55:07.502Z,6.33
2019-03-18T09:57:35.764Z,6.37
2019-03-18T10:00:12.105Z,5.00
2019-03-18T10:02:39.984Z,6.03
2019-03-18T10:05:08.277Z,5.93
2019-03-18T10:07:36.538Z,6.20
2019-03-18T10:10:09.522Z,4.40
2019-03-18T10:12:37.814Z,6.43
2019-03-18T10:15:13.822Z,4.77
2019-03-18T10:17:42.086Z,4.30
2019-03-18T10:20:10.361Z,7.63
2019-03-18T10:22:38.648Z,10.90
2019-03-18T10:25:07.850Z,12.60
2019-03-18T10:27:37.769Z,13.90
2019-03-18T10:30:09.509Z,16.90
2019-03-18T10:32:37.786Z,18.70
2019-03-18T10:35:06.518Z,16.50
2019-03-18T10:37:34.817Z,18.40
2019-03-18T10:40:03.116Z,17.37
2019-03-18T10:42:31.475Z,24.40
2019-03-18T10:44:59.745Z,17.80
2019-03-18T10:47:28.051Z,22.07
2019-03-18T10:49:56.322Z,24.37
2019-03-18T10:52:24.692Z,17.20
2019-03-18T10:54:52.995Z,29.10
2019-03-18T10:57:21.344Z,26.27
2019-03-18T10:59:49.612Z,22.93
2019-03-18T11:02:17.919Z,22.93
2019-03-18T11:04:46.193Z,24.77
2019-03-18T11:07:14.531Z,24.47
2019-03-18T11:09:42.831Z,29.83
2019-03-18T11:12:11.127Z,22.07
2019-03-18T11:14:39.393Z,30.63
2019-03-18T11:17:07.683Z,21.17
2019-03-18T11:19:35.984Z,26.77
2019-03-18T11:22:04.333Z,28.73
2019-03-18T11:24:32.659Z,29.97
2019-03-18T11:27:00.949Z,25.40
2019-03-18T11:29:29.287Z,26.13
2019-03-18T11:31:57.587Z,21.63
2019-03-18T11:34:25.935Z,26.63
2019-03-18T11:36:54.283Z,23.77
2019-03-18T11:39:22.542Z,24.73
2019-03-18T11:41:50.897Z,21.53
2019-03-18T11:44:19.160Z,24.50
2019-03-18T11:46:47.474Z,26.33
2019-03-18T11:49:15.732Z,21.60
2019-03-18T11:51:44.050Z,24.63
2019-03-18T11:54:12.338Z,21.60
2019-03-18T11:56:40.661Z,33.93
2019-03-18T11:59:09.059Z,17.87
2019-03-18T12:01:37.318Z,22.47
2019-03-18T12:04:05.591Z,23.63
2019-03-18T12:06:33.889Z,22.67
2019-03-18T12:09:02.165Z,22.17
2019-03-18T12:11:30.439Z,26.30
2019-03-18T12:13:58.711Z,21.67
2019-03-18T12:16:26.978Z,26.23
2019-03-18T12:18:55.253Z,17.33
2019-03-18T12:21:23.529Z,23.07
2019-03-18T12:23:51.874Z,23.57
2019-03-18T12:26:20.134Z,25.87
2019-03-18T12:28:48.415Z,15.67
2019-03-18T12:31:16.677Z,23.40
2019-03-18T12:33:44.944Z,19.33
2019-03-18T12:36:13.193Z,17.50
2019-03-18T12:38:41.512Z,20.03
2019-03-18T12:41:09.874Z,19.90
2019-03-18T12:43:38.239Z,19.63
2019-03-18T12:46:06.608Z,21.90
2019-03-18T12:48:34.985Z,17.77
2019-03-18T12:51:03.303Z,22.27
2019-03-18T12:53:31.585Z,17.40
2019-03-18T12:55:59.930Z,21.27
2019-03-18T12:58:28.216Z,19.37
2019-03-18T13:00:56.486Z,26.83
2019-03-18T13:03:24.748Z,17.17
2019-03-18T13:05:53.075Z,11.33
2019-03-18T13:08:21.329Z,16.90
2019-03-18T13:10:50.446Z,16.97
2019-03-18T13:13:18.696Z,16.03
2019-03-18T13:15:46.996Z,15.93
2019-03-18T13:18:15.266Z,16.17
2019-03-18T13:20:43.530Z,13.53
2019-03-18T13:23:11.784Z,11.27
2019-03-18T13:25:40.083Z,15.10
2019-03-18T13:28:08.348Z,19.33
2019-03-18T13:30:36.652Z,14.67
2019-03-18T13:33:04.908Z,16.57
2019-03-18T13:35:33.212Z,13.13
2019-03-18T13:38:01.490Z,11.60
2019-03-18T13:40:30.275Z,8.77
2019-03-18T13:42:58.575Z,13.53
2019-03-18T13:45:26.893Z,17.00
2019-03-18T13:47:55.171Z,15.60
2019-03-18T13:50:23.551Z,9.27
2019-03-18T13:52:51.882Z,19.50
2019-03-18T13:55:20.263Z,11.33
2019-03-18T13:57:48.563Z,19.50
2019-03-18T14:00:23.103Z,17.33
2019-03-18T14:02:51.390Z,29.50
2019-03-18T14:05:19.673Z,17.13
2019-03-18T14:07:59.822Z,16.53
2019-03-18T14:10:20.098Z,18.43
2019-03-18T14:12:48.444Z,19.83
2019-03-18T14:15:25.807Z,22.20
2019-03-18T14:17:54.087Z,17.73
2019-03-18T14:20:25.612Z,21.07
2019-03-18T14:22:53.978Z,20.00
2019-03-18T14:25:22.315Z,18.87
2019-03-18T14:27:50.752Z,17.87
2019-03-18T14:30:22.846Z,21.60
2019-03-18T14:32:51.135Z,18.33
2019-03-18T14:35:21.574Z,17.13
2019-03-18T14:37:49.513Z,21.83
2019-03-18T14:40:22.538Z,15.33
2019-03-18T14:42:50.821Z,22.33
2019-03-18T14:45:21.185Z,20.20
2019-03-18T14:47:49.477Z,22.43
2019-03-18T14:50:18.280Z,14.70
2019-03-18T14:52:46.638Z,17.33
2019-03-18T14:55:17.025Z,16.90
2019-03-18T14:57:45.650Z,16.13
2019-03-18T15:00:23.279Z,20.10
2019-03-18T15:02:51.704Z,17.70
2019-03-18T15:05:20.145Z,21.93
2019-03-18T15:07:48.485Z,27.13
2019-03-18T15:10:19.504Z,25.57
2019-03-18T15:12:47.824Z,22.97
2019-03-18T15:15:18.077Z,26.07
2019-03-18T15:17:46.421Z,23.80
2019-03-18T15:20:18.960Z,25.30
2019-03-18T15:22:47.291Z,26.03
2019-03-18T15:25:28.571Z,25.10
2019-03-18T15:27:56.835Z,24.80
2019-03-18T15:30:25.270Z,22.57
2019-03-18T15:32:53.722Z,24.33
2019-03-18T15:35:22.086Z,16.70
2019-03-18T15:37:50.457Z,22.37
2019-03-18T15:40:20.575Z,19.93
2019-03-18T15:42:48.867Z,16.60
2019-03-18T15:45:18.364Z,14.43
2019-03-18T15:50:25.021Z,11.83
2019-03-18T15:52:53.351Z,17.00
2019-03-18T15:55:24.059Z,25.30
2019-03-18T15:57:51.633Z,22.80
2019-03-18T16:00:26.963Z,15.33
2019-03-18T16:02:55.312Z,21.07
2019-03-18T16:05:23.696Z,21.10
2019-03-18T16:07:52.013Z,18.87
2019-03-18T16:10:20.697Z,25.87
2019-03-18T16:12:49.081Z,14.73
2019-03-18T16:15:18.021Z,24.00
2019-03-18T16:17:46.324Z,24.20
2019-03-18T16:20:48.110Z,23.20
2019-03-18T16:23:31.767Z,20.60
2019-03-18T16:26:00.042Z,26.17
2019-03-18T16:28:28.459Z,19.03
2019-03-18T16:30:56.801Z,26.70
2019-03-18T16:33:25.105Z,27.20
2019-03-18T16:35:53.476Z,15.40
2019-03-18T16:38:22.246Z,17.57
2019-03-18T16:40:50.548Z,27.50
2019-03-18T16:43:18.940Z,19.23
2019-03-18T16:45:47.268Z,20.00
2019-03-18T16:48:15.523Z,17.03
2019-03-18T16:50:43.878Z,22.13
2019-03-18T16:53:12.196Z,17.97
2019-03-18T16:55:40.475Z,26.90
2019-03-18T16:58:08.731Z,22.47
2019-03-18T17:00:37.347Z,18.87
2019-03-18T17:03:05.614Z,22.20
2019-03-18T17:05:33.862Z,25.77
2019-03-18T17:08:02.167Z,31.87
2019-03-18T17:10:30.498Z,25.10
2019-03-18T17:12:59.347Z,24.93
2019-03-18T17:15:27.601Z,22.13
2019-03-18T17:17:55.890Z,27.30
2019-03-18T17:20:24.192Z,29.47
2019-03-18T17:22:52.555Z,23.30
2019-03-18T17:25:26.319Z,24.97
2019-03-18T17:27:54.610Z,34.00
2019-03-18T17:30:22.897Z,24.27
2019-03-18T17:32:51.183Z,35.43
2019-03-18T17:35:19.444Z,25.70
2019-03-18T17:37:47.750Z,33.53
2019-03-18T17:40:18.078Z,27.27
2019-03-18T17:42:46.340Z,24.93
2019-03-18T17:45:15.588Z,28.47
2019-03-18T17:47:43.978Z,28.73
2019-03-18T17:50:18.330Z,26.20
2019-03-18T17:52:46.635Z,26.33
2019-03-18T17:55:14.962Z,27.60
2019-03-18T17:57:43.238Z,29.00
2019-03-18T18:00:15.745Z,28.83
2019-03-18T18:02:44.109Z,27.67
2019-03-18T18:05:12.376Z,21.93
2019-03-18T18:07:40.650Z,27.83
2019-03-18T18:10:11.323Z,23.37
2019-03-18T18:12:39.595Z,27.20
2019-03-18T18:15:09.488Z,26.00
2019-03-18T18:17:37.774Z,25.60
2019-03-18T18:20:08.526Z,31.53
2019-03-18T18:22:36.802Z,22.43
2019-03-18T18:25:08.430Z,25.20
2019-03-18T18:27:36.709Z,31.83
2019-03-18T18:30:19.052Z,24.83
2019-03-18T18:32:47.453Z,30.73
2019-03-18T18:35:15.759Z,27.80
2019-03-18T18:37:44.079Z,20.73
2019-03-18T18:40:14.173Z,24.73
2019-03-18T18:42:42.453Z,29.97
2019-03-18T18:45:12.426Z,37.17
2019-03-18T18:47:40.701Z,29.80
2019-03-18T18:50:10.279Z,24.13
2019-03-18T18:52:38.549Z,27.07
2019-03-18T18:55:09.149Z,28.43
2019-03-18T18:57:37.404Z,31.07
2019-03-18T19:00:14.214Z,30.40
2019-03-18T19:02:42.494Z,35.83
2019-03-18T19:05:13.548Z,25.57
2019-03-18T19:07:41.990Z,25.50
2019-03-18T19:10:15.836Z,36.33
2019-03-18T19:12:44.102Z,30.83
2019-03-18T19:15:17.972Z,29.43
2019-03-18T19:17:46.245Z,28.03
2019-03-18T19:20:14.574Z,37.97
2019-03-18T19:22:42.822Z,29.13
2019-03-18T19:25:13.209Z,35.20
2019-03-18T19:27:41.499Z,27.77
2019-03-18T19:30:17.820Z,31.90
2019-03-18T19:32:46.069Z,40.20
2019-03-18T19:35:14.367Z,41.03
2019-03-18T19:37:42.658Z,35.50
2019-03-18T19:40:16.570Z,25.30
2019-03-18T19:42:44.853Z,33.37
2019-03-18T19:45:13.933Z,46.00
2019-03-18T19:47:42.302Z,31.77
2019-03-18T19:50:22.246Z,30.13
2019-03-18T19:52:53.684Z,27.83
2019-03-18T19:55:22.117Z,39.43
2019-03-18T19:57:50.460Z,31.03
2019-03-18T20:00:30.140Z,28.97
2019-03-18T20:02:58.529Z,32.33
2019-03-18T20:05:27.294Z,28.80
2019-03-18T20:07:55.632Z,26.03
2019-03-18T20:10:23.981Z,30.03
2019-03-18T20:12:52.373Z,23.73
2019-03-18T20:15:20.895Z,25.37
2019-03-18T20:17:49.256Z,30.30
2019-03-18T20:20:18.656Z,25.07
2019-03-18T20:22:46.975Z,17.97
2019-03-18T20:25:15.542Z,30.40
2019-03-18T20:27:47.242Z,24.60
2019-03-18T20:30:20.989Z,25.20
2019-03-18T20:32:49.336Z,26.50
2019-03-18T20:35:19.150Z,26.57
2019-03-18T20:37:47.437Z,24.33
2019-03-18T20:40:16.806Z,24.67
2019-03-18T20:42:45.047Z,33.90
2019-03-18T20:45:24.338Z,37.07
2019-03-18T20:47:52.611Z,28.97
2019-03-18T20:50:21.898Z,26.83
2019-03-18T20:52:50.271Z,28.10
2019-03-18T20:55:18.555Z,25.80
2019-03-18T20:57:46.943Z,32.90
2019-03-18T21:00:19.079Z,29.80
2019-03-18T21:02:47.384Z,32.07
2019-03-18T21:05:15.762Z,32.30
2019-03-18T21:07:44.140Z,28.57
2019-03-18T21:10:14.535Z,37.97
2019-03-18T21:12:42.794Z,32.50
2019-03-18T21:15:13.647Z,25.53
2019-03-18T21:17:42.293Z,32.37
2019-03-18T21:20:16.412Z,26.23
2019-03-18T21:22:44.776Z,36.17
2019-03-18T21:25:13.035Z,22.73
2019-03-18T21:27:41.368Z,31.63
2019-03-18T21:30:15.418Z,33.33
2019-03-18T21:32:45.626Z,30.77
2019-03-18T21:35:13.958Z,28.97
2019-03-18T21:37:42.242Z,23.13
2019-03-18T21:40:20.416Z,30.80
2019-03-18T21:42:48.766Z,29.80
2019-03-18T21:45:23.272Z,26.30
2019-03-18T21:47:50.976Z,31.93
2019-03-18T21:50:19.322Z,32.93
2019-03-18T21:52:47.580Z,24.47
2019-03-18T21:55:16.386Z,26.53
2019-03-18T21:57:44.666Z,26.77
2019-03-18T22:00:22.684Z,25.13
2019-03-18T22:02:51.019Z,28.50
2019-03-18T22:05:19.353Z,34.20
2019-03-18T22:07:47.657Z,30.30
2019-03-18T22:10:19.921Z,31.80
2019-03-18T22:12:48.255Z,21.50
2019-03-18T22:15:16.865Z,23.17
2019-03-18T22:17:45.241Z,31.10
2019-03-18T22:20:15.763Z,29.50
2019-03-18T22:22:44.030Z,33.10
2019-03-18T22:25:13.255Z,23.23
2019-03-18T22:27:44.315Z,26.83
2019-03-18T22:30:16.565Z,24.77
2019-03-18T22:32:44.831Z,33.37
2019-03-18T22:35:13.145Z,28.53
2019-03-18T22:37:41.413Z,23.70
2019-03-18T22:40:11.451Z,29.20
2019-03-18T22:42:39.699Z,37.63
2019-03-18T22:45:12.842Z,30.50
2019-03-18T22:47:41.097Z,30.20
2019-03-18T22:50:10.923Z,27.80
2019-03-18T22:52:39.176Z,31.90
2019-03-18T22:55:09.873Z,37.50
2019-03-18T22:57:38.816Z,21.90
2019-03-18T23:00:22.197Z,21.33
2019-03-18T23:02:50.510Z,18.37
2019-03-18T23:05:38.304Z,19.03
2019-03-18T23:08:06.554Z,20.57
2019-03-18T23:10:34.806Z,33.80
2019-03-18T23:13:03.057Z,24.87
2019-03-18T23:15:31.334Z,39.23
2019-03-18T23:17:59.611Z,28.63
2019-03-18T23:20:27.882Z,27.17
2019-03-18T23:22:56.226Z,26.07
2019-03-18T23:25:24.606Z,20.20
2019-03-18T23:27:53.203Z,25.27
2019-03-18T23:30:21.742Z,22.90
2019-03-18T23:32:50.258Z,23.50
2019-03-18T23:35:20.594Z,31.73
2019-03-18T23:37:49.109Z,23.63
2019-03-18T23:40:17.576Z,34.23
2019-03-18T23:42:46.058Z,19.87
2019-03-18T23:45:14.957Z,21.30
2019-03-18T23:47:43.454Z,20.77
2019-03-18T23:50:13.569Z,24.07
2019-03-18T23:52:41.993Z,26.23
2019-03-18T23:55:18.851Z,21.80
2019-03-18T23:57:40.933Z,22.63
